OEBA/ABT METAR and TAF weather

Enter ICAO airport designator
Station Type Date Time Source
OEBA METAR 2021/03/01 09:00 UTC NOAA

OEBA 010900Z 20014KT 9999 FEW030 23/15 Q1020 NOSIG


Station Type Date Time Source
OEBA Decoded METAR 2021/03/01 09:00 UTC NOAA

Al Baha, Saudi Arabia (OEBA) 20-18N 041-38E 1662M
Mar 01, 2021 - 04:00 AM EST / 2021.03.01 0900 UTC
Wind: from the SSW (200 degrees) at 16 MPH (14 KT):0
Visibility: greater than 7 mile(s):0
Sky conditions: mostly clear
Temperature: 73 F (23 C)
Dew Point: 59 F (15 C)
Relative Humidity: 60%
Pressure (altimeter): 30.12 in. Hg (1020 hPa)
ob: OEBA 010900Z 20014KT 9999 FEW030 23/15 Q1020 NOSIG
cycle: 9

Station Type Date Time Source
OEBA TAF 2021/02/28 12:06 UTC NOAA

TAF OEBA 281100Z 2812/0118 21020KT 9999 SCT030
TEMPO 2812/2818 7000 TSRA FEW025CB BKN030
BECMG 2818/2820 21010KT

Example: see airport list